Time;durP1;ratioP1;P1;durP2;ratioP2;P2;SDS_P1;SDS_P2;PMS_P1;PMS_P2;Temp;Humidity;BMP_temperature;BMP_pressure;BME280_temperature;BME280_humidity;BME280_pressure;Samples;Min_cycle;Max_cycle;Signal;HPM_P1;HPM_P2
2023/09/20 00:00:33;;;;;;;;;;;;;;;19.46;84.45;95479.03;5016950;28;20511;-83
2023/09/20 00:02:58;;;;;;;;;;;;;;;19.33;83.22;95474.66;5005673;28;19917;-82
2023/09/20 00:05:24;;;;;;;;;;;;;;;19.28;83.85;95467.56;5015247;28;19917;-83
2023/09/20 00:07:56;;;;;;;;;;;;;;;19.30;84.47;95469.94;5033721;28;19924;-83
2023/09/20 00:10:24;;;;;;;;;;;;;;;19.33;84.47;95482.72;5027777;28;20126;-82
2023/09/20 00:12:50;;;;;;;;;;;;;;;19.34;84.35;95476.25;5033456;28;20014;-83
2023/09/20 00:15:16;;;;;;;;;;;;;;;19.12;84.83;95472.66;5030456;28;19960;-83
2023/09/20 00:17:41;;;;;;;;;;;;;;;19.26;85.67;95478.63;5016847;28;19928;-83
2023/09/20 00:20:13;;;;;;;;;;;;;;;19.27;86.23;95463.31;5016683;28;19917;-83
2023/09/20 00:22:43;;;;;;;;;;;;;;;19.16;84.96;95478.97;5033403;28;19925;-83
2023/09/20 00:25:09;;;;;;;;;;;;;;;19.19;85.09;95478.34;5016282;28;19956;-83
2023/09/20 00:27:35;;;;;;;;;;;;;;;19.14;83.83;95477.75;5016634;28;19939;-83
2023/09/20 00:30:01;;;;;;;;;;;;;;;19.14;83.46;95483.91;5017049;28;19970;-84
2023/09/20 00:32:27;;;;;;;;;;;;;;;19.20;83.50;95489.91;5016797;28;20432;-84
2023/09/20 00:34:52;;;;;;;;;;;;;;;19.09;83.98;95489.44;5037425;28;19921;-79
2023/09/20 00:37:18;;;;;;;;;;;;;;;18.93;84.07;95488.34;5038318;28;19952;-79
2023/09/20 00:39:44;;;;;;;;;;;;;;;18.78;84.52;95483.47;5039019;28;19917;-79
2023/09/20 00:42:09;;;;;;;;;;;;;;;18.69;85.00;95480.78;5038835;28;19928;-79
2023/09/20 00:44:35;;;;;;;;;;;;;;;18.67;85.40;95484.91;5039200;28;20011;-79
2023/09/20 00:47:03;;;;;;;;;;;;;;;18.71;85.04;95483.94;5038981;28;19917;-79
2023/09/20 00:49:29;;;;;;;;;;;;;;;18.66;85.33;95483.31;5038813;28;20411;-79
2023/09/20 00:51:54;;;;;;;;;;;;;;;18.75;85.61;95484.91;5021173;28;19916;-79
2023/09/20 00:54:21;;;;;;;;;;;;;;;18.64;85.43;95483.63;5039789;28;19917;-79
2023/09/20 00:56:46;;;;;;;;;;;;;;;18.69;85.26;95480.00;5021625;28;19917;-79
2023/09/20 00:59:12;;;;;;;;;;;;;;;18.76;86.05;95483.00;5021227;28;19921;-79
2023/09/20 01:01:39;;;;;;;;;;;;;;;18.83;86.08;95481.44;5020198;28;20040;-79
2023/09/20 01:04:08;;;;;;;;;;;;;;;18.76;84.37;95483.00;5019884;28;19924;-79
2023/09/20 01:06:34;;;;;;;;;;;;;;;18.74;83.86;95483.31;5020057;28;19917;-79
2023/09/20 01:08:59;;;;;;;;;;;;;;;18.84;84.19;95474.16;5017249;28;20277;-79
2023/09/20 01:11:25;;;;;;;;;;;;;;;18.83;83.92;95484.13;5019554;28;19923;-79
2023/09/20 01:13:51;;;;;;;;;;;;;;;18.83;83.71;95477.94;5037706;28;19960;-79
2023/09/20 01:16:17;;;;;;;;;;;;;;;18.81;83.76;95477.47;5017390;28;19916;-79
2023/09/20 01:18:45;;;;;;;;;;;;;;;18.68;83.81;95479.22;5015981;28;20284;-79
2023/09/20 01:21:11;;;;;;;;;;;;;;;18.66;83.70;95475.25;5019218;28;19921;-79
2023/09/20 01:23:38;;;;;;;;;;;;;;;18.56;83.49;95481.75;5020586;28;19917;-79
2023/09/20 01:26:03;;;;;;;;;;;;;;;18.56;83.67;95478.22;5021136;28;19921;-80
2023/09/20 01:28:29;;;;;;;;;;;;;;;18.55;84.16;95476.66;5016597;28;19932;-80
2023/09/20 01:30:54;;;;;;;;;;;;;;;18.66;84.55;95472.59;5017286;28;19921;-79
2023/09/20 01:33:19;;;;;;;;;;;;;;;18.68;85.20;95473.06;5017974;28;19960;-79
2023/09/20 01:35:45;;;;;;;;;;;;;;;18.71;84.04;95483.16;5036049;28;19956;-79
2023/09/20 01:38:11;;;;;;;;;;;;;;;18.68;84.38;95481.91;5033186;28;20015;-80
2023/09/20 01:40:36;;;;;;;;;;;;;;;18.76;84.53;95485.69;5037174;28;20329;-80
2023/09/20 01:43:11;;;;;;;;;;;;;;;18.73;84.48;95489.00;5035027;28;19952;-79
2023/09/20 01:45:36;;;;;;;;;;;;;;;18.74;84.15;95485.22;5020646;28;19927;-78
2023/09/20 01:48:06;;;;;;;;;;;;;;;18.72;83.82;95490.91;5036478;28;19984;-78
2023/09/20 01:50:32;;;;;;;;;;;;;;;18.73;84.62;95486.31;5036490;28;20701;-79
2023/09/20 01:52:59;;;;;;;;;;;;;;;18.59;82.88;95489.19;5038022;28;19916;-78
2023/09/20 01:55:25;;;;;;;;;;;;;;;18.53;82.30;95479.66;5019200;28;20002;-79
2023/09/20 01:57:52;;;;;;;;;;;;;;;18.51;82.75;95477.28;5018139;28;19931;-79
2023/09/20 02:00:25;;;;;;;;;;;;;;;18.42;82.70;95478.38;5034721;28;19929;-79
2023/09/20 02:02:54;;;;;;;;;;;;;;;18.43;83.62;95479.97;5032993;28;20259;-79
2023/09/20 02:05:26;;;;;;;;;;;;;;;18.49;83.66;95484.88;5018670;28;19939;-78
2023/09/20 02:07:56;;;;;;;;;;;;;;;18.43;82.71;95477.28;5036599;28;19952;-78
2023/09/20 02:10:22;;;;;;;;;;;;;;;18.47;82.40;95484.38;5017037;28;19925;-78
2023/09/20 02:12:48;;;;;;;;;;;;;;;18.55;82.56;95484.69;5017441;28;19927;-79
2023/09/20 02:15:14;;;;;;;;;;;;;;;18.52;83.50;95480.78;5032660;28;19925;-79
2023/09/20 02:17:41;;;;;;;;;;;;;;;18.42;81.90;95479.19;5016797;28;19921;-78
2023/09/20 02:20:10;;;;;;;;;;;;;;;18.28;82.63;95473.19;5023049;28;19920;-78
2023/09/20 02:22:36;;;;;;;;;;;;;;;18.34;83.21;95481.84;5023847;28;19932;-78
2023/09/20 02:25:04;;;;;;;;;;;;;;;18.28;83.15;95478.53;5025962;28;19921;-78
2023/09/20 02:27:30;;;;;;;;;;;;;;;18.35;82.88;95478.88;5043463;28;19917;-78
2023/09/20 02:29:56;;;;;;;;;;;;;;;18.38;84.74;95480.94;5039581;28;20604;-79
2023/09/20 02:32:23;;;;;;;;;;;;;;;18.43;84.08;95493.41;5040045;28;19975;-78
2023/09/20 02:34:49;;;;;;;;;;;;;;;18.42;83.28;95487.25;5025521;28;19917;-79
2023/09/20 02:37:14;;;;;;;;;;;;;;;18.32;82.42;95494.81;5051056;28;19943;-78
2023/09/20 02:39:40;;;;;;;;;;;;;;;18.21;82.24;95494.34;5045150;28;19956;-79
2023/09/20 02:42:05;;;;;;;;;;;;;;;18.31;82.70;95494.00;5030046;28;20306;-79
2023/09/20 02:44:31;;;;;;;;;;;;;;;18.29;83.11;95487.41;5026571;28;20056;-79
2023/09/20 02:46:56;;;;;;;;;;;;;;;18.21;82.48;95491.66;5022666;28;20415;-78
2023/09/20 02:49:21;;;;;;;;;;;;;;;18.17;83.64;95490.69;5039113;28;19917;-78
2023/09/20 02:51:48;;;;;;;;;;;;;;;18.16;83.34;95494.47;5038802;28;19917;-78
2023/09/20 02:54:14;;;;;;;;;;;;;;;18.16;83.60;95499.06;5020790;28;19913;-78
2023/09/20 02:56:40;;;;;;;;;;;;;;;18.11;83.57;95498.09;5020288;28;19917;-78
2023/09/20 02:59:07;;;;;;;;;;;;;;;18.01;83.41;95503.75;5020834;28;20295;-79
2023/09/20 03:01:33;;;;;;;;;;;;;;;17.89;84.21;95495.53;5038477;28;19925;-79
2023/09/20 03:03:58;;;;;;;;;;;;;;;17.77;85.22;95497.22;5037637;28;19913;-78
2023/09/20 03:06:23;;;;;;;;;;;;;;;17.88;85.15;95506.56;5038279;28;19917;-78
2023/09/20 03:08:49;;;;;;;;;;;;;;;17.96;84.74;95501.22;5018748;28;19917;-78
2023/09/20 03:11:21;;;;;;;;;;;;;;;17.92;85.23;95496.81;5035329;28;19956;-79
2023/09/20 03:13:47;;;;;;;;;;;;;;;18.04;85.90;95492.41;5019767;28;19917;-78
2023/09/20 03:16:16;;;;;;;;;;;;;;;18.10;85.88;95496.50;5037123;28;20000;-78
2023/09/20 03:18:42;;;;;;;;;;;;;;;18.09;84.49;95500.28;5037479;28;19921;-78
2023/09/20 03:21:07;;;;;;;;;;;;;;;18.17;85.40;95497.94;5037254;28;19928;-78
2023/09/20 03:23:33;;;;;;;;;;;;;;;18.11;83.90;95502.66;5037149;28;19917;-78
2023/09/20 03:25:59;;;;;;;;;;;;;;;18.05;83.57;95491.31;5020515;28;19928;-78
2023/09/20 03:28:25;;;;;;;;;;;;;;;18.06;84.32;95498.25;5023099;28;19994;-78
2023/09/20 03:30:51;;;;;;;;;;;;;;;18.01;84.42;95500.28;5022370;28;19916;-78
2023/09/20 03:33:16;;;;;;;;;;;;;;;17.95;84.12;95496.16;5022620;28;20012;-78
2023/09/20 03:35:42;;;;;;;;;;;;;;;17.94;84.30;95495.38;5022855;28;20142;-78
2023/09/20 03:38:08;;;;;;;;;;;;;;;18.11;84.36;95505.34;5022030;28;20084;-78
2023/09/20 03:40:34;;;;;;;;;;;;;;;18.22;84.82;95490.53;5022516;28;19983;-78
2023/09/20 03:43:02;;;;;;;;;;;;;;;18.24;85.47;95496.38;5040075;28;19917;-78
2023/09/20 03:45:28;;;;;;;;;;;;;;;18.21;84.75;95483.59;5022750;28;20015;-78
2023/09/20 03:47:56;;;;;;;;;;;;;;;18.18;84.81;95497.63;5041207;28;20367;-78
2023/09/20 03:50:22;;;;;;;;;;;;;;;18.27;84.72;95494.97;5040863;28;19923;-78
2023/09/20 03:52:47;;;;;;;;;;;;;;;18.31;84.05;95494.00;5039837;28;20324;-78
2023/09/20 03:55:13;;;;;;;;;;;;;;;18.30;84.49;95497.81;5040080;28;20070;-78
2023/09/20 03:57:38;;;;;;;;;;;;;;;18.36;84.89;95491.19;5024188;28;20020;-78
2023/09/20 04:00:07;;;;;;;;;;;;;;;18.41;85.16;95493.72;5018194;28;19913;-78
2023/09/20 04:02:34;;;;;;;;;;;;;;;18.40;84.86;95494.81;5044243;28;20036;-78
2023/09/20 04:05:05;;;;;;;;;;;;;;;18.44;84.38;95498.47;5012968;28;19971;-79
2023/09/20 04:07:31;;;;;;;;;;;;;;;18.47;84.85;95492.44;5022125;28;19956;-79
2023/09/20 04:09:56;;;;;;;;;;;;;;;18.53;83.84;95498.47;5022326;28;19920;-79
2023/09/20 04:12:23;;;;;;;;;;;;;;;18.55;84.25;95503.50;5021985;28;19921;-79
2023/09/20 04:14:50;;;;;;;;;;;;;;;18.56;84.22;95497.03;5039816;28;20383;-79
2023/09/20 04:17:16;;;;;;;;;;;;;;;18.55;84.06;95492.75;5028369;28;19921;-79
2023/09/20 04:19:42;;;;;;;;;;;;;;;18.61;83.88;95495.03;5035185;28;19925;-79
2023/09/20 04:22:07;;;;;;;;;;;;;;;18.48;82.75;95495.94;5035341;28;19924;-79
2023/09/20 04:24:33;;;;;;;;;;;;;;;18.51;84.61;95487.25;5034734;28;20171;-79
2023/09/20 04:26:59;;;;;;;;;;;;;;;18.51;84.43;95495.31;5031255;28;20414;-79
2023/09/20 04:29:25;;;;;;;;;;;;;;;18.57;84.77;95494.06;4991987;28;19921;-80
2023/09/20 04:31:52;;;;;;;;;;;;;;;18.42;83.87;95497.97;5006278;28;19932;-80
2023/09/20 04:34:18;;;;;;;;;;;;;;;18.51;83.72;95493.41;5022455;28;20025;-80
2023/09/20 04:36:44;;;;;;;;;;;;;;;18.43;82.59;95494.19;5014585;28;20020;-80
2023/09/20 04:39:11;;;;;;;;;;;;;;;17.98;83.31;95436.50;4995108;28;19925;-79
2023/09/20 04:41:37;;;;;;;;;;;;;;;18.37;82.68;95503.50;4995480;28;20155;-80
2023/09/20 04:44:04;;;;;;;;;;;;;;;18.25;83.29;95507.91;5012968;28;20634;-80
2023/09/20 04:46:29;;;;;;;;;;;;;;;18.36;83.83;95509.19;5012554;28;19925;-80
2023/09/20 04:48:55;;;;;;;;;;;;;;;18.39;84.43;95506.66;5011227;28;20381;-80
2023/09/20 04:51:20;;;;;;;;;;;;;;;18.45;84.39;95510.00;4992462;28;20632;-80
2023/09/20 04:53:46;;;;;;;;;;;;;;;18.50;85.14;95513.31;5017933;28;20299;-81
2023/09/20 04:56:11;;;;;;;;;;;;;;;18.57;84.42;95510.19;5001106;28;19925;-81
2023/09/20 04:58:36;;;;;;;;;;;;;;;18.65;84.71;95511.28;4995785;28;19917;-81
2023/09/20 05:01:02;;;;;;;;;;;;;;;18.56;84.06;95511.28;4993724;28;19939;-81
2023/09/20 05:03:29;;;;;;;;;;;;;;;18.58;83.59;95514.44;4998448;28;19987;-81
2023/09/20 05:05:54;;;;;;;;;;;;;;;18.59;82.74;95517.94;5023561;28;19972;-81
2023/09/20 05:08:20;;;;;;;;;;;;;;;18.61;83.07;95521.91;5018762;28;20404;-81
2023/09/20 05:10:45;;;;;;;;;;;;;;;18.37;82.89;95519.63;4995193;28;19936;-79
2023/09/20 05:13:11;;;;;;;;;;;;;;;18.34;83.18;95519.44;5003599;28;19921;-79
2023/09/20 05:15:39;;;;;;;;;;;;;;;18.44;83.59;95513.78;5000682;28;19975;-79
2023/09/20 05:18:05;;;;;;;;;;;;;;;18.57;85.03;95525.50;5003363;28;19925;-80
2023/09/20 05:20:31;;;;;;;;;;;;;;;18.67;84.08;95533.25;5025658;28;20036;-80
2023/09/20 05:22:58;;;;;;;;;;;;;;;18.73;83.45;95530.09;5015616;28;20070;-80
2023/09/20 05:25:23;;;;;;;;;;;;;;;18.75;83.27;95529.78;5000323;28;19974;-80
2023/09/20 05:27:49;;;;;;;;;;;;;;;18.72;82.94;95533.88;4999042;28;20043;-80
2023/09/20 05:30:16;;;;;;;;;;;;;;;18.72;81.84;95536.56;5033843;28;19999;-79
2023/09/20 05:32:41;;;;;;;;;;;;;;;18.69;82.14;95533.75;5015698;28;19932;-78
2023/09/20 05:35:08;;;;;;;;;;;;;;;18.67;82.57;95539.44;5014871;28;20466;-80
2023/09/20 05:37:35;;;;;;;;;;;;;;;18.76;83.21;95540.22;5009715;28;20036;-79
2023/09/20 05:40:00;;;;;;;;;;;;;;;18.77;82.55;95543.69;5014810;28;19925;-79
2023/09/20 05:42:28;;;;;;;;;;;;;;;18.85;81.21;95550.94;5011717;28;20316;-79
2023/09/20 05:44:53;;;;;;;;;;;;;;;18.84;80.68;95552.84;5011883;28;19968;-78
2023/09/20 05:47:19;;;;;;;;;;;;;;;18.82;80.74;95549.69;5032219;28;19929;-78
2023/09/20 05:49:44;;;;;;;;;;;;;;;18.83;81.17;95550.50;5010411;28;19948;-79
2023/09/20 05:52:09;;;;;;;;;;;;;;;18.80;80.78;95557.28;5022176;28;19928;-79
2023/09/20 05:54:36;;;;;;;;;;;;;;;18.83;80.57;95563.94;5001405;28;19922;-79
2023/09/20 05:57:02;;;;;;;;;;;;;;;18.75;80.17;95565.50;5019631;28;19924;-78
2023/09/20 05:59:28;;;;;;;;;;;;;;;18.64;80.38;95560.75;5006785;28;20270;-78
2023/09/20 06:01:53;;;;;;;;;;;;;;;18.65;81.38;95573.06;5021884;28;19921;-79
2023/09/20 06:04:19;;;;;;;;;;;;;;;18.70;80.83;95568.31;5018404;28;20015;-79
2023/09/20 06:06:44;;;;;;;;;;;;;;;18.78;80.47;95570.22;5005342;28;19943;-79
2023/09/20 06:09:09;;;;;;;;;;;;;;;18.81;80.32;95571.50;5019697;28;19955;-78
2023/09/20 06:11:35;;;;;;;;;;;;;;;18.82;80.82;95567.72;5023398;28;20305;-79
2023/09/20 06:14:00;;;;;;;;;;;;;;;18.83;80.30;95567.41;4981930;28;19929;-79
2023/09/20 06:16:25;;;;;;;;;;;;;;;18.89;81.06;95568.81;4991673;28;20450;-79
2023/09/20 06:18:51;;;;;;;;;;;;;;;19.02;80.72;95561.69;5015890;28;19925;-78
2023/09/20 06:21:19;;;;;;;;;;;;;;;18.96;80.62;95572.94;5016531;28;20071;-79
2023/09/20 06:23:45;;;;;;;;;;;;;;;19.02;80.42;95575.13;4980283;28;19947;-80
2023/09/20 06:26:12;;;;;;;;;;;;;;;19.07;80.60;95571.53;5004455;28;19944;-78
2023/09/20 06:28:40;;;;;;;;;;;;;;;19.08;80.85;95573.88;4997183;28;19922;-79
2023/09/20 06:31:06;;;;;;;;;;;;;;;19.11;81.32;95575.94;4993105;28;19951;-79
2023/09/20 06:33:31;;;;;;;;;;;;;;;19.10;81.09;95581.63;4991974;28;19921;-79
2023/09/20 06:35:59;;;;;;;;;;;;;;;19.15;80.77;95582.25;5008224;28;19933;-78
2023/09/20 06:38:24;;;;;;;;;;;;;;;19.22;81.10;95576.41;5016418;28;19928;-79
2023/09/20 06:40:51;;;;;;;;;;;;;;;19.22;80.27;95581.78;5018197;28;20287;-77
2023/09/20 06:43:17;;;;;;;;;;;;;;;19.28;80.91;95580.50;4996424;28;20347;-77
2023/09/20 06:45:52;;;;;;;;;;;;;;;19.36;79.99;95576.22;5023992;28;19924;-77
2023/09/20 06:48:20;;;;;;;;;;;;;;;19.40;79.22;95579.84;5014790;28;19998;-78
2023/09/20 06:50:47;;;;;;;;;;;;;;;19.45;79.35;95580.50;4995558;28;19921;-79
2023/09/20 06:53:13;;;;;;;;;;;;;;;19.38;78.36;95590.13;5009043;28;20576;-78
2023/09/20 06:55:38;;;;;;;;;;;;;;;19.45;78.83;95583.19;5006970;28;19921;-79
2023/09/20 06:58:07;;;;;;;;;;;;;;;19.44;79.31;95581.59;5000855;28;19921;-78
2023/09/20 07:00:35;;;;;;;;;;;;;;;19.57;78.90;95585.22;4990223;28;20344;-79
2023/09/20 07:03:02;;;;;;;;;;;;;;;19.63;79.31;95590.13;5019460;28;19956;-80
2023/09/20 07:05:28;;;;;;;;;;;;;;;19.63;78.60;95583.94;4987172;28;20388;-81
2023/09/20 07:07:54;;;;;;;;;;;;;;;19.69;77.89;95598.00;5011129;28;20205;-79
2023/09/20 07:10:19;;;;;;;;;;;;;;;19.76;77.78;95599.09;5005618;28;19932;-79
2023/09/20 07:12:45;;;;;;;;;;;;;;;19.77;78.40;95602.56;5006802;28;19989;-78
2023/09/20 07:15:15;;;;;;;;;;;;;;;19.67;76.67;95597.56;5002178;28;19956;-80
2023/09/20 07:17:43;;;;;;;;;;;;;;;19.65;76.99;95601.34;4989515;28;19949;-78
2023/09/20 07:20:17;;;;;;;;;;;;;;;19.81;76.63;95598.16;4994654;28;19960;-79
2023/09/20 07:22:43;;;;;;;;;;;;;;;19.90;77.47;95597.00;5006532;28;20175;-79
2023/09/20 07:25:16;;;;;;;;;;;;;;;19.99;77.21;95608.50;4989140;28;20023;-80
2023/09/20 07:27:42;;;;;;;;;;;;;;;20.09;76.98;95610.06;4993442;28;19928;-79
2023/09/20 07:30:14;;;;;;;;;;;;;;;20.10;76.40;95603.56;4995941;28;20027;-79
2023/09/20 07:32:39;;;;;;;;;;;;;;;20.21;76.69;95607.50;5010820;28;20595;-80
2023/09/20 07:35:19;;;;;;;;;;;;;;;20.20;75.90;95605.91;4990674;28;19925;-80
2023/09/20 07:37:50;;;;;;;;;;;;;;;20.26;74.69;95612.69;4997475;28;19936;-83
2023/09/20 07:40:15;;;;;;;;;;;;;;;20.19;73.70;95609.72;4989430;28;19928;-80
2023/09/20 07:42:41;;;;;;;;;;;;;;;20.13;73.90;95613.72;4988904;28;19929;-80
2023/09/20 07:45:12;;;;;;;;;;;;;;;20.21;74.74;95609.41;5004022;28;19960;-81
2023/09/20 07:47:39;;;;;;;;;;;;;;;20.27;73.36;95608.09;5006968;28;20111;-84
2023/09/20 07:50:06;;;;;;;;;;;;;;;20.22;73.99;95611.75;5003455;28;19932;-80
2023/09/20 07:52:33;;;;;;;;;;;;;;;20.25;73.80;95613.81;4987016;28;20157;-80
2023/09/20 07:55:01;;;;;;;;;;;;;;;20.07;72.66;95616.88;4981963;28;20289;-80
2023/09/20 07:57:28;;;;;;;;;;;;;;;20.13;72.67;95610.22;5001260;28;19921;-81
2023/09/20 07:59:53;;;;;;;;;;;;;;;20.35;72.71;95604.59;4978894;28;19931;-80
2023/09/20 08:02:19;;;;;;;;;;;;;;;20.34;71.82;95606.50;4996436;28;19984;-80
2023/09/20 08:04:44;;;;;;;;;;;;;;;20.33;72.69;95604.09;5005881;28;20376;-82
2023/09/20 08:07:10;;;;;;;;;;;;;;;20.36;72.34;95603.50;5014351;28;19928;-83
2023/09/20 08:09:36;;;;;;;;;;;;;;;20.24;72.47;95598.75;5013490;28;19975;-80
2023/09/20 08:12:01;;;;;;;;;;;;;;;20.23;71.58;95605.25;4997493;28;19921;-82
2023/09/20 08:14:26;;;;;;;;;;;;;;;20.44;72.73;95602.66;5002755;28;19929;-80
2023/09/20 08:19:36;;;;;;;;;;;;;;;20.35;70.59;95599.22;5010187;28;19931;-80
2023/09/20 08:22:01;;;;;;;;;;;;;;;20.47;70.34;95601.19;5013668;28;19925;-80
2023/09/20 09:00:07;;;;;;;;;;;;;;;20.58;70.43;95580.88;5000916;28;19932;-80
2023/09/20 09:02:34;;;;;;;;;;;;;;;20.63;69.54;95584.16;4990320;28;19928;-80
2023/09/20 09:05:00;;;;;;;;;;;;;;;20.73;69.82;95575.69;5001442;28;19991;-80
2023/09/20 09:07:26;;;;;;;;;;;;;;;20.81;70.78;95576.75;4985253;28;19925;-79
2023/09/20 09:09:52;;;;;;;;;;;;;;;20.92;70.81;95567.13;5001297;28;19948;-79
2023/09/20 09:12:18;;;;;;;;;;;;;;;20.95;71.01;95568.38;5002485;28;19925;-80
2023/09/20 09:14:46;;;;;;;;;;;;;;;20.94;69.68;95567.59;4993589;28;19999;-81
2023/09/20 09:17:11;;;;;;;;;;;;;;;21.02;69.06;95566.75;4970638;28;19932;-81
2023/09/20 09:19:38;;;;;;;;;;;;;;;21.02;68.34;95565.94;4988761;28;19921;-81
2023/09/20 09:22:03;;;;;;;;;;;;;;;20.88;67.92;95557.34;4975208;28;19935;-81
2023/09/20 09:24:42;;;;;;;;;;;;;;;20.91;68.09;95562.84;4998304;28;20261;-81
2023/09/20 09:27:08;;;;;;;;;;;;;;;20.98;68.73;95567.75;5001080;28;19925;-81
2023/09/20 09:29:33;;;;;;;;;;;;;;;21.06;68.52;95558.75;4976036;28;19933;-80
2023/09/20 09:32:02;;;;;;;;;;;;;;;20.99;68.86;95561.22;4977566;28;20060;-81
2023/09/20 09:34:28;;;;;;;;;;;;;;;21.07;68.81;95558.44;5003442;28;20011;-81
2023/09/20 09:36:53;;;;;;;;;;;;;;;21.22;68.76;95553.59;5005723;28;20028;-81
2023/09/20 09:39:19;;;;;;;;;;;;;;;21.40;68.65;95563.88;4977369;28;19921;-80
2023/09/20 09:41:46;;;;;;;;;;;;;;;21.24;68.41;95560.22;4998221;28;19932;-80
2023/09/20 09:44:12;;;;;;;;;;;;;;;21.36;68.86;95554.88;4990156;28;19953;-80
2023/09/20 09:46:38;;;;;;;;;;;;;;;21.39;67.24;95553.41;4973232;28;20286;-80
2023/09/20 09:49:05;;;;;;;;;;;;;;;21.32;68.54;95540.47;4983328;28;20282;-80
2023/09/20 09:51:32;;;;;;;;;;;;;;;21.22;67.40;95540.88;5001366;28;19932;-84
2023/09/20 09:53:58;;;;;;;;;;;;;;;21.26;68.45;95539.13;5020490;28;19928;-84
2023/09/20 09:56:25;;;;;;;;;;;;;;;21.88;68.09;95552.41;5014969;28;19998;-81
2023/09/20 09:58:50;;;;;;;;;;;;;;;22.49;65.13;95557.84;4990795;28;19929;-80
2023/09/20 10:01:17;;;;;;;;;;;;;;;23.02;61.50;95545.13;4994581;28;19926;-80
2023/09/20 10:03:44;;;;;;;;;;;;;;;24.01;59.12;95545.09;5016498;28;19913;-80
2023/09/20 10:06:12;;;;;;;;;;;;;;;24.86;57.39;95538.13;5017097;28;19945;-80
2023/09/20 10:08:39;;;;;;;;;;;;;;;25.77;54.92;95540.34;5013152;28;19984;-80
2023/09/20 10:11:08;;;;;;;;;;;;;;;26.69;51.82;95530.94;5019149;28;20384;-80
2023/09/20 10:13:36;;;;;;;;;;;;;;;27.31;49.05;95531.38;5038806;28;19936;-81
2023/09/20 10:16:04;;;;;;;;;;;;;;;28.13;45.53;95525.56;5019997;28;19942;-81
2023/09/20 10:18:51;;;;;;;;;;;;;;;28.70;44.14;95520.53;5027308;28;19928;-81
2023/09/20 10:21:20;;;;;;;;;;;;;;;28.71;42.75;95519.38;5027208;28;20015;-81
2023/09/20 10:23:52;;;;;;;;;;;;;;;29.16;42.54;95528.97;5034935;28;19932;-81
2023/09/20 10:26:19;;;;;;;;;;;;;;;29.88;40.97;95525.31;5026988;28;19921;-81
2023/09/20 10:28:45;;;;;;;;;;;;;;;30.14;39.96;95507.75;5021938;28;20008;-79
2023/09/20 10:31:14;;;;;;;;;;;;;;;30.54;38.93;95512.81;4991737;28;19997;-81
2023/09/20 10:33:46;;;;;;;;;;;;;;;30.71;38.65;95499.50;5007628;28;19964;-80
2023/09/20 10:36:19;;;;;;;;;;;;;;;30.70;37.34;95506.94;5023280;28;20299;-79
2023/09/20 10:38:46;;;;;;;;;;;;;;;30.59;37.51;95495.25;5034396;22;20236;-83
2023/09/20 10:41:12;;;;;;;;;;;;;;;30.74;36.25;95491.28;5010611;28;20359;-83
2023/09/20 10:43:38;;;;;;;;;;;;;;;30.54;36.56;95490.16;5009965;28;20037;-85
2023/09/20 10:46:14;;;;;;;;;;;;;;;30.71;36.95;95481.13;4996546;28;19969;-84
2023/09/20 10:48:48;;;;;;;;;;;;;;;30.93;36.35;95479.09;5012407;28;20012;-85
2023/09/20 10:51:33;;;;;;;;;;;;;;;31.16;35.12;95486.84;5015541;28;19999;-85
2023/09/20 10:54:01;;;;;;;;;;;;;;;31.40;34.99;95469.50;5026684;28;20795;-85
2023/09/20 10:56:45;;;;;;;;;;;;;;;31.39;33.98;95462.47;5016189;28;19916;-84
2023/09/20 10:59:16;;;;;;;;;;;;;;;31.69;34.31;95462.69;5006658;28;19925;-86
2023/09/20 11:01:48;;;;;;;;;;;;;;;31.54;32.93;95457.66;5012208;28;20426;-84
2023/09/20 11:04:13;;;;;;;;;;;;;;;31.54;32.52;95452.97;5019970;28;20438;-84
2023/09/20 11:06:38;;;;;;;;;;;;;;;31.58;32.51;95448.25;5031085;28;19920;-83
2023/09/20 11:09:11;;;;;;;;;;;;;;;31.09;33.32;95452.06;5048595;28;19966;-83
2023/09/20 11:11:37;;;;;;;;;;;;;;;31.64;33.46;95452.16;5023681;28;19920;-82
2023/09/20 11:14:03;;;;;;;;;;;;;;;31.74;33.86;95442.28;5052575;28;19926;-87
2023/09/20 11:16:30;;;;;;;;;;;;;;;32.06;34.25;95444.75;5003353;28;19952;-83
2023/09/20 11:18:56;;;;;;;;;;;;;;;32.29;33.19;95438.69;5048214;28;19925;-83
2023/09/20 11:21:24;;;;;;;;;;;;;;;32.24;31.97;95437.19;5024395;28;19957;-85
2023/09/20 11:23:49;;;;;;;;;;;;;;;32.40;31.42;95433.91;5028446;23;19925;-83
2023/09/20 11:26:25;;;;;;;;;;;;;;;32.52;29.46;95425.13;5039026;28;19969;-83
2023/09/20 11:28:52;;;;;;;;;;;;;;;32.28;30.40;95417.94;5021765;28;19931;-82
2023/09/20 11:31:21;;;;;;;;;;;;;;;32.18;30.29;95431.38;5025551;28;19917;-82
2023/09/20 11:33:57;;;;;;;;;;;;;;;32.21;28.40;95416.03;5026834;28;20054;-83
2023/09/20 11:36:22;;;;;;;;;;;;;;;32.34;29.40;95419.06;5021148;28;20356;-83
2023/09/20 11:38:47;;;;;;;;;;;;;;;32.71;29.35;95416.31;5028783;28;19921;-83
2023/09/20 11:41:14;;;;;;;;;;;;;;;32.78;30.21;95410.75;5026216;28;19920;-81
2023/09/20 11:43:41;;;;;;;;;;;;;;;32.94;28.40;95408.19;5014204;28;19931;-84
2023/09/20 11:46:12;;;;;;;;;;;;;;;33.03;29.59;95409.66;5032263;28;19951;-83
2023/09/20 11:48:37;;;;;;;;;;;;;;;32.90;29.48;95403.91;5018274;28;19959;-83
2023/09/20 11:51:03;;;;;;;;;;;;;;;32.94;29.58;95407.41;5013317;28;19921;-82
2023/09/20 11:53:30;;;;;;;;;;;;;;;33.20;28.95;95400.38;5033992;28;19928;-81
2023/09/20 11:55:58;;;;;;;;;;;;;;;33.32;29.33;95399.84;5031444;28;19925;-81
2023/09/20 11:58:23;;;;;;;;;;;;;;;33.53;28.05;95398.75;5014868;28;20022;-83
2023/09/20 12:00:49;;;;;;;;;;;;;;;33.67;28.42;95388.31;5021038;28;19983;-83
2023/09/20 12:03:15;;;;;;;;;;;;;;;33.87;28.60;95387.63;5008354;28;19924;-82
2023/09/20 12:05:42;;;;;;;;;;;;;;;33.75;27.62;95380.75;5019744;28;19932;-85
2023/09/20 12:08:09;;;;;;;;;;;;;;;33.45;27.43;95387.09;5000258;28;19933;-85
2023/09/20 12:10:34;;;;;;;;;;;;;;;33.71;27.35;95380.00;5002134;28;19948;-83
2023/09/20 12:13:00;;;;;;;;;;;;;;;33.32;27.46;95386.91;5025631;28;19921;-85
2023/09/20 12:15:25;;;;;;;;;;;;;;;33.61;26.98;95389.19;5006176;28;19978;-84
2023/09/20 12:17:57;;;;;;;;;;;;;;;33.58;26.74;95392.78;5024487;28;19960;-83
2023/09/20 12:20:25;;;;;;;;;;;;;;;33.59;26.98;95386.88;5029602;28;19924;-83
2023/09/20 12:22:51;;;;;;;;;;;;;;;33.49;27.32;95384.28;5032375;28;20094;-85
2023/09/20 12:25:16;;;;;;;;;;;;;;;33.39;27.66;95374.22;5011301;28;19920;-85
2023/09/20 12:27:43;;;;;;;;;;;;;;;33.66;27.90;95377.72;5027601;28;19921;-84
2023/09/20 12:30:11;;;;;;;;;;;;;;;33.25;27.93;95375.22;5010637;28;19968;-84
2023/09/20 12:32:36;;;;;;;;;;;;;;;33.24;28.62;95371.69;5022872;28;19927;-83
2023/09/20 12:35:03;;;;;;;;;;;;;;;33.15;28.41;95373.38;5021564;28;22079;-85
2023/09/20 12:37:29;;;;;;;;;;;;;;;33.10;27.97;95371.88;5004288;28;20097;-84
2023/09/20 12:39:54;;;;;;;;;;;;;;;33.19;27.19;95372.13;5019148;28;20146;-84
2023/09/20 12:42:20;;;;;;;;;;;;;;;33.15;26.66;95365.13;5002281;28;19921;-83
2023/09/20 12:44:47;;;;;;;;;;;;;;;33.34;26.80;95367.22;5008208;28;20250;-86
2023/09/20 12:47:13;;;;;;;;;;;;;;;33.71;26.29;95367.03;5007421;28;19925;-86
2023/09/20 12:49:38;;;;;;;;;;;;;;;33.78;25.31;95370.88;4982392;28;19920;-84
2023/09/20 12:52:04;;;;;;;;;;;;;;;34.02;25.06;95364.19;5017601;28;19990;-84
2023/09/20 12:54:30;;;;;;;;;;;;;;;34.12;25.34;95357.69;4998188;28;19920;-86
2023/09/20 12:56:57;;;;;;;;;;;;;;;34.07;25.90;95356.22;5000218;28;20074;-87
2023/09/20 12:59:26;;;;;;;;;;;;;;;33.82;26.75;95357.84;4995003;28;19922;-87
2023/09/20 13:01:54;;;;;;;;;;;;;;;33.83;25.49;95356.66;5016696;28;20282;-86
2023/09/20 13:04:20;;;;;;;;;;;;;;;34.22;25.85;95348.47;5002839;28;20333;-87
2023/09/20 13:06:45;;;;;;;;;;;;;;;34.01;25.63;95346.91;5020103;28;19917;-85
2023/09/20 13:09:14;;;;;;;;;;;;;;;33.74;25.77;95340.69;5001579;28;19990;-83
2023/09/20 13:11:41;;;;;;;;;;;;;;;33.32;26.25;95331.91;4994694;28;20051;-85
2023/09/20 13:14:07;;;;;;;;;;;;;;;32.97;26.79;95340.63;4996174;28;19932;-85
2023/09/20 13:16:32;;;;;;;;;;;;;;;33.22;26.84;95343.84;5014533;28;19921;-85
2023/09/20 13:18:58;;;;;;;;;;;;;;;32.65;27.45;95332.03;4998562;28;19932;-85
2023/09/20 13:21:24;;;;;;;;;;;;;;;32.61;27.17;95334.81;5001789;28;19920;-85
2023/09/20 13:23:49;;;;;;;;;;;;;;;32.98;26.68;95328.47;5004968;28;19926;-85